sensor_id;sensor_type;location;lat;lon;timestamp;temperature;humidity
1506;DHT22;744;51.436;7.356;2023-03-01T00:01:02;5.40;37.30
1506;DHT22;744;51.436;7.356;2023-03-01T00:03:29;5.00;37.00
1506;DHT22;744;51.436;7.356;2023-03-01T00:05:56;5.20;37.10
1506;DHT22;744;51.436;7.356;2023-03-01T00:08:23;5.50;37.30
1506;DHT22;744;51.436;7.356;2023-03-01T00:10:59;5.40;37.20
1506;DHT22;744;51.436;7.356;2023-03-01T00:13:26;5.00;37.00
1506;DHT22;744;51.436;7.356;2023-03-01T00:15:52;4.90;37.00
1506;DHT22;744;51.436;7.356;2023-03-01T00:18:19;5.20;37.30
1506;DHT22;744;51.436;7.356;2023-03-01T00:20:51;5.10;37.30
1506;DHT22;744;51.436;7.356;2023-03-01T00:23:18;4.80;37.20
1506;DHT22;744;51.436;7.356;2023-03-01T00:25:45;4.80;37.40
1506;DHT22;744;51.436;7.356;2023-03-01T00:28:12;4.80;37.40
1506;DHT22;744;51.436;7.356;2023-03-01T00:30:39;4.80;37.40
1506;DHT22;744;51.436;7.356;2023-03-01T00:33:05;4.70;37.50
1506;DHT22;744;51.436;7.356;2023-03-01T00:35:33;4.40;37.30
1506;DHT22;744;51.436;7.356;2023-03-01T00:38:00;4.30;37.50
1506;DHT22;744;51.436;7.356;2023-03-01T00:40:28;4.20;37.70
1506;DHT22;744;51.436;7.356;2023-03-01T00:42:56;4.20;37.90
1506;DHT22;744;51.436;7.356;2023-03-01T00:45:23;4.00;37.80
1506;DHT22;744;51.436;7.356;2023-03-01T00:47:50;3.90;37.80
1506;DHT22;744;51.436;7.356;2023-03-01T00:50:18;4.30;38.30
1506;DHT22;744;51.436;7.356;2023-03-01T00:52:45;4.20;38.30
1506;DHT22;744;51.436;7.356;2023-03-01T00:55:12;4.40;38.30
1506;DHT22;744;51.436;7.356;2023-03-01T00:57:38;4.20;38.10
1506;DHT22;744;51.436;7.356;2023-03-01T01:00:06;4.20;38.10
1506;DHT22;744;51.436;7.356;2023-03-01T01:02:34;4.20;38.20
1506;DHT22;744;51.436;7.356;2023-03-01T01:05:00;4.40;38.40
1506;DHT22;744;51.436;7.356;2023-03-01T01:07:27;4.40;38.40
1506;DHT22;744;51.436;7.356;2023-03-01T01:09:54;4.30;38.50
1506;DHT22;744;51.436;7.356;2023-03-01T01:12:21;4.20;38.40
1506;DHT22;744;51.436;7.356;2023-03-01T01:14:48;4.40;38.70
1506;DHT22;744;51.436;7.356;2023-03-01T01:17:14;4.50;38.70
1506;DHT22;744;51.436;7.356;2023-03-01T01:19:41;4.30;38.10
1506;DHT22;744;51.436;7.356;2023-03-01T01:22:08;4.40;38.40
1506;DHT22;744;51.436;7.356;2023-03-01T01:24:35;4.10;38.30
1506;DHT22;744;51.436;7.356;2023-03-01T01:27:01;4.20;38.60
1506;DHT22;744;51.436;7.356;2023-03-01T01:29:28;4.30;38.60
1506;DHT22;744;51.436;7.356;2023-03-01T01:31:55;4.40;38.60
1506;DHT22;744;51.436;7.356;2023-03-01T01:34:22;4.10;38.40
1506;DHT22;744;51.436;7.356;2023-03-01T01:36:52;4.10;38.40
1506;DHT22;744;51.436;7.356;2023-03-01T01:39:22;4.20;38.60
1506;DHT22;744;51.436;7.356;2023-03-01T01:41:49;4.00;38.30
1506;DHT22;744;51.436;7.356;2023-03-01T01:44:23;3.90;38.40
1506;DHT22;744;51.436;7.356;2023-03-01T01:49:31;3.70;38.60
1506;DHT22;744;51.436;7.356;2023-03-01T01:57:20;3.50;39.20
1506;DHT22;744;51.436;7.356;2023-03-01T01:59:51;3.40;39.20
1506;DHT22;744;51.436;7.356;2023-03-01T02:02:19;3.50;39.40
1506;DHT22;744;51.436;7.356;2023-03-01T02:04:48;3.50;39.50
1506;DHT22;744;51.436;7.356;2023-03-01T02:07:19;3.70;39.80
1506;DHT22;744;51.436;7.356;2023-03-01T02:09:49;3.60;39.90
1506;DHT22;744;51.436;7.356;2023-03-01T02:12:18;3.50;39.70
1506;DHT22;744;51.436;7.356;2023-03-01T02:14:45;3.40;39.70
1506;DHT22;744;51.436;7.356;2023-03-01T02:17:15;3.40;39.80
1506;DHT22;744;51.436;7.356;2023-03-01T02:20:17;3.50;40.00
1506;DHT22;744;51.436;7.356;2023-03-01T02:22:47;3.60;40.00
1506;DHT22;744;51.436;7.356;2023-03-01T02:28:23;3.90;40.00
1506;DHT22;744;51.436;7.356;2023-03-01T02:30:49;3.80;39.70
1506;DHT22;744;51.436;7.356;2023-03-01T02:33:37;3.90;40.10
1506;DHT22;744;51.436;7.356;2023-03-01T02:36:08;4.00;39.70
1506;DHT22;744;51.436;7.356;2023-03-01T02:38:35;3.70;39.40
1506;DHT22;744;51.436;7.356;2023-03-01T02:41:03;3.70;39.30
1506;DHT22;744;51.436;7.356;2023-03-01T02:43:33;3.90;39.40
1506;DHT22;744;51.436;7.356;2023-03-01T02:46:25;3.70;39.20
1506;DHT22;744;51.436;7.356;2023-03-01T02:48:55;3.70;39.40
1506;DHT22;744;51.436;7.356;2023-03-01T02:54:35;3.40;39.70
1506;DHT22;744;51.436;7.356;2023-03-01T02:57:03;3.50;39.80
1506;DHT22;744;51.436;7.356;2023-03-01T02:59:32;3.60;39.90
1506;DHT22;744;51.436;7.356;2023-03-01T03:02:07;3.80;40.00
1506;DHT22;744;51.436;7.356;2023-03-01T03:04:34;3.90;39.70
1506;DHT22;744;51.436;7.356;2023-03-01T03:07:01;3.70;39.50
1506;DHT22;744;51.436;7.356;2023-03-01T03:09:27;3.60;39.40
1506;DHT22;744;51.436;7.356;2023-03-01T03:11:54;3.60;39.40
1506;DHT22;744;51.436;7.356;2023-03-01T03:14:21;3.80;39.50
1506;DHT22;744;51.436;7.356;2023-03-01T03:16:49;3.70;39.30
1506;DHT22;744;51.436;7.356;2023-03-01T03:19:17;3.60;39.40
1506;DHT22;744;51.436;7.356;2023-03-01T03:21:44;3.50;39.40
1506;DHT22;744;51.436;7.356;2023-03-01T03:24:11;3.40;39.50
1506;DHT22;744;51.436;7.356;2023-03-01T03:26:38;3.50;39.60
1506;DHT22;744;51.436;7.356;2023-03-01T03:29:04;3.60;39.70
1506;DHT22;744;51.436;7.356;2023-03-01T03:31:31;3.30;39.60
1506;DHT22;744;51.436;7.356;2023-03-01T03:33:58;3.30;39.70
1506;DHT22;744;51.436;7.356;2023-03-01T03:36:25;3.70;40.00
1506;DHT22;744;51.436;7.356;2023-03-01T03:38:52;3.20;39.60
1506;DHT22;744;51.436;7.356;2023-03-01T03:41:19;3.20;39.80
1506;DHT22;744;51.436;7.356;2023-03-01T03:43:46;3.40;40.00
1506;DHT22;744;51.436;7.356;2023-03-01T03:46:13;3.40;40.20
1506;DHT22;744;51.436;7.356;2023-03-01T03:48:42;3.30;40.20
1506;DHT22;744;51.436;7.356;2023-03-01T03:51:15;3.30;40.20
1506;DHT22;744;51.436;7.356;2023-03-01T03:53:43;3.30;40.20
1506;DHT22;744;51.436;7.356;2023-03-01T03:59:38;3.10;40.40
1506;DHT22;744;51.436;7.356;2023-03-01T04:02:05;3.10;40.30
1506;DHT22;744;51.436;7.356;2023-03-01T04:04:32;3.00;40.20
1506;DHT22;744;51.436;7.356;2023-03-01T04:06:58;3.10;40.40
1506;DHT22;744;51.436;7.356;2023-03-01T04:09:25;3.10;40.40
1506;DHT22;744;51.436;7.356;2023-03-01T04:11:52;3.00;40.50
1506;DHT22;744;51.436;7.356;2023-03-01T04:14:19;3.00;40.60
1506;DHT22;744;51.436;7.356;2023-03-01T04:16:45;3.00;40.60
1506;DHT22;744;51.436;7.356;2023-03-01T04:19:12;3.10;40.60
1506;DHT22;744;51.436;7.356;2023-03-01T04:21:39;3.00;40.60
1506;DHT22;744;51.436;7.356;2023-03-01T04:24:05;2.80;40.50
1506;DHT22;744;51.436;7.356;2023-03-01T04:26:33;2.90;40.80
1506;DHT22;744;51.436;7.356;2023-03-01T04:28:59;2.90;40.80
1506;DHT22;744;51.436;7.356;2023-03-01T04:31:26;2.90;40.90
1506;DHT22;744;51.436;7.356;2023-03-01T04:33:55;2.60;40.70
1506;DHT22;744;51.436;7.356;2023-03-01T04:36:24;2.80;40.90
1506;DHT22;744;51.436;7.356;2023-03-01T04:38:52;2.70;40.90
1506;DHT22;744;51.436;7.356;2023-03-01T04:41:21;2.60;40.90
1506;DHT22;744;51.436;7.356;2023-03-01T04:43:48;2.80;41.20
1506;DHT22;744;51.436;7.356;2023-03-01T04:46:17;2.80;41.20
1506;DHT22;744;51.436;7.356;2023-03-01T04:48:45;2.90;41.30
1506;DHT22;744;51.436;7.356;2023-03-01T04:51:13;2.70;41.30
1506;DHT22;744;51.436;7.356;2023-03-01T04:53:41;2.70;42.00
1506;DHT22;744;51.436;7.356;2023-03-01T04:56:08;2.70;41.20
1506;DHT22;744;51.436;7.356;2023-03-01T04:58:36;3.00;41.30
1506;DHT22;744;51.436;7.356;2023-03-01T05:01:12;2.80;41.20
1506;DHT22;744;51.436;7.356;2023-03-01T05:03:46;3.10;41.40
1506;DHT22;744;51.436;7.356;2023-03-01T05:06:14;3.00;41.10
1506;DHT22;744;51.436;7.356;2023-03-01T05:08:42;3.20;41.10
1506;DHT22;744;51.436;7.356;2023-03-01T05:11:10;3.00;41.00
1506;DHT22;744;51.436;7.356;2023-03-01T05:13:38;3.20;40.90
1506;DHT22;744;51.436;7.356;2023-03-01T05:16:06;3.40;40.80
1506;DHT22;744;51.436;7.356;2023-03-01T05:18:33;3.10;40.60
1506;DHT22;744;51.436;7.356;2023-03-01T05:21:09;3.00;40.80
1506;DHT22;744;51.436;7.356;2023-03-01T05:23:36;3.00;41.00
1506;DHT22;744;51.436;7.356;2023-03-01T05:26:05;2.80;41.00
1506;DHT22;744;51.436;7.356;2023-03-01T05:28:36;2.60;41.20
1506;DHT22;744;51.436;7.356;2023-03-01T05:31:04;2.60;41.40
1506;DHT22;744;51.436;7.356;2023-03-01T05:33:40;2.60;41.50
1506;DHT22;744;51.436;7.356;2023-03-01T05:36:08;2.50;41.40
1506;DHT22;744;51.436;7.356;2023-03-01T05:38:36;2.70;41.50
1506;DHT22;744;51.436;7.356;2023-03-01T05:41:03;2.60;41.40
1506;DHT22;744;51.436;7.356;2023-03-01T05:43:31;2.60;41.40
1506;DHT22;744;51.436;7.356;2023-03-01T05:46:00;2.60;41.50
1506;DHT22;744;51.436;7.356;2023-03-01T05:48:28;2.50;41.30
1506;DHT22;744;51.436;7.356;2023-03-01T05:50:54;2.70;41.40
1506;DHT22;744;51.436;7.356;2023-03-01T05:53:21;2.80;41.20
1506;DHT22;744;51.436;7.356;2023-03-01T05:55:48;2.90;41.30
1506;DHT22;744;51.436;7.356;2023-03-01T05:58:18;2.70;41.40
1506;DHT22;744;51.436;7.356;2023-03-01T06:00:47;2.60;41.50
1506;DHT22;744;51.436;7.356;2023-03-01T06:03:16;2.60;41.60
1506;DHT22;744;51.436;7.356;2023-03-01T06:05:43;2.80;41.60
1506;DHT22;744;51.436;7.356;2023-03-01T06:08:11;2.90;41.40
1506;DHT22;744;51.436;7.356;2023-03-01T06:10:38;2.80;41.10
1506;DHT22;744;51.436;7.356;2023-03-01T06:13:05;2.90;41.10
1506;DHT22;744;51.436;7.356;2023-03-01T06:15:32;2.70;41.00
1506;DHT22;744;51.436;7.356;2023-03-01T06:17:59;2.90;40.50
1506;DHT22;744;51.436;7.356;2023-03-01T06:20:28;2.80;41.10
1506;DHT22;744;51.436;7.356;2023-03-01T06:22:55;2.70;41.20
1506;DHT22;744;51.436;7.356;2023-03-01T06:25:23;2.60;41.20
1506;DHT22;744;51.436;7.356;2023-03-01T06:27:51;2.90;41.30
1506;DHT22;744;51.436;7.356;2023-03-01T06:30:22;2.90;41.10
1506;DHT22;744;51.436;7.356;2023-03-01T06:32:50;2.50;41.20
1506;DHT22;744;51.436;7.356;2023-03-01T06:35:18;2.60;41.60
1506;DHT22;744;51.436;7.356;2023-03-01T06:37:46;2.40;41.60
1506;DHT22;744;51.436;7.356;2023-03-01T06:40:14;2.30;41.70
1506;DHT22;744;51.436;7.356;2023-03-01T06:42:43;2.40;42.00
1506;DHT22;744;51.436;7.356;2023-03-01T06:45:11;2.50;42.00
1506;DHT22;744;51.436;7.356;2023-03-01T06:47:38;2.90;42.30
1506;DHT22;744;51.436;7.356;2023-03-01T06:50:05;2.80;42.00
1506;DHT22;744;51.436;7.356;2023-03-01T06:52:32;2.90;41.90
1506;DHT22;744;51.436;7.356;2023-03-01T06:54:59;2.90;42.00
1506;DHT22;744;51.436;7.356;2023-03-01T06:57:26;2.90;42.00
1506;DHT22;744;51.436;7.356;2023-03-01T06:59:53;2.90;41.90
1506;DHT22;744;51.436;7.356;2023-03-01T07:02:20;2.70;41.70
1506;DHT22;744;51.436;7.356;2023-03-01T07:04:52;2.60;41.80
1506;DHT22;744;51.436;7.356;2023-03-01T07:07:19;2.70;41.80
1506;DHT22;744;51.436;7.356;2023-03-01T07:09:48;2.50;41.80
1506;DHT22;744;51.436;7.356;2023-03-01T07:12:15;2.60;41.90
1506;DHT22;744;51.436;7.356;2023-03-01T07:14:43;2.70;42.00
1506;DHT22;744;51.436;7.356;2023-03-01T07:17:10;2.60;41.90
1506;DHT22;744;51.436;7.356;2023-03-01T07:19:37;2.80;41.90
1506;DHT22;744;51.436;7.356;2023-03-01T07:22:04;2.90;41.80
1506;DHT22;744;51.436;7.356;2023-03-01T07:24:31;3.00;41.60
1506;DHT22;744;51.436;7.356;2023-03-01T07:26:57;2.90;41.30
1506;DHT22;744;51.436;7.356;2023-03-01T07:29:24;2.80;41.50
1506;DHT22;744;51.436;7.356;2023-03-01T07:31:51;2.50;41.40
1506;DHT22;744;51.436;7.356;2023-03-01T07:34:17;2.40;41.70
1506;DHT22;744;51.436;7.356;2023-03-01T07:36:44;2.20;41.80
1506;DHT22;744;51.436;7.356;2023-03-01T07:39:12;2.60;42.30
1506;DHT22;744;51.436;7.356;2023-03-01T07:41:38;2.70;42.30
1506;DHT22;744;51.436;7.356;2023-03-01T07:44:05;2.40;42.00
1506;DHT22;744;51.436;7.356;2023-03-01T07:46:32;2.50;42.10
1506;DHT22;744;51.436;7.356;2023-03-01T07:48:59;2.50;42.30
1506;DHT22;744;51.436;7.356;2023-03-01T07:51:26;2.50;42.30
1506;DHT22;744;51.436;7.356;2023-03-01T07:53:53;2.40;42.40
1506;DHT22;744;51.436;7.356;2023-03-01T07:56:20;2.50;42.60
1506;DHT22;744;51.436;7.356;2023-03-01T07:58:48;2.60;42.60
1506;DHT22;744;51.436;7.356;2023-03-01T08:01:19;2.20;42.30
1506;DHT22;744;51.436;7.356;2023-03-01T08:03:47;2.40;42.60
1506;DHT22;744;51.436;7.356;2023-03-01T08:06:16;2.40;42.70
1506;DHT22;744;51.436;7.356;2023-03-01T08:08:43;2.40;42.80
1506;DHT22;744;51.436;7.356;2023-03-01T08:11:11;2.40;42.80
1506;DHT22;744;51.436;7.356;2023-03-01T08:13:38;2.70;43.10
1506;DHT22;744;51.436;7.356;2023-03-01T08:16:09;2.60;42.90
1506;DHT22;744;51.436;7.356;2023-03-01T08:18:36;2.70;42.90
1506;DHT22;744;51.436;7.356;2023-03-01T08:21:04;2.60;42.90
1506;DHT22;744;51.436;7.356;2023-03-01T08:23:31;2.90;43.10
1506;DHT22;744;51.436;7.356;2023-03-01T08:26:06;2.80;42.90
1506;DHT22;744;51.436;7.356;2023-03-01T08:28:33;2.90;43.10
1506;DHT22;744;51.436;7.356;2023-03-01T08:31:00;3.10;42.90
1506;DHT22;744;51.436;7.356;2023-03-01T08:33:27;3.30;42.80
1506;DHT22;744;51.436;7.356;2023-03-01T08:36:02;3.50;42.60
1506;DHT22;744;51.436;7.356;2023-03-01T08:38:29;3.60;42.30
1506;DHT22;744;51.436;7.356;2023-03-01T08:40:59;3.40;42.20
1506;DHT22;744;51.436;7.356;2023-03-01T08:43:26;3.50;42.30
1506;DHT22;744;51.436;7.356;2023-03-01T08:45:53;3.80;42.60
1506;DHT22;744;51.436;7.356;2023-03-01T08:48:20;3.50;42.30
1506;DHT22;744;51.436;7.356;2023-03-01T08:50:46;3.60;42.30
1506;DHT22;744;51.436;7.356;2023-03-01T08:53:13;3.70;42.30
1506;DHT22;744;51.436;7.356;2023-03-01T08:55:40;3.70;42.10
1506;DHT22;744;51.436;7.356;2023-03-01T08:58:07;4.00;42.10
1506;DHT22;744;51.436;7.356;2023-03-01T09:00:34;3.90;41.90
1506;DHT22;744;51.436;7.356;2023-03-01T09:03:01;3.90;41.70
1506;DHT22;744;51.436;7.356;2023-03-01T09:05:31;4.10;41.80
1506;DHT22;744;51.436;7.356;2023-03-01T09:07:59;4.50;41.80
1506;DHT22;744;51.436;7.356;2023-03-01T09:10:26;4.50;41.70
1506;DHT22;744;51.436;7.356;2023-03-01T09:12:53;4.50;41.60
1506;DHT22;744;51.436;7.356;2023-03-01T09:15:19;4.40;41.40
1506;DHT22;744;51.436;7.356;2023-03-01T09:17:46;4.70;41.40
1506;DHT22;744;51.436;7.356;2023-03-01T09:20:13;4.40;41.10
1506;DHT22;744;51.436;7.356;2023-03-01T09:22:40;4.40;41.10
1506;DHT22;744;51.436;7.356;2023-03-01T09:25:07;4.70;41.10
1506;DHT22;744;51.436;7.356;2023-03-01T09:27:34;4.70;41.00
1506;DHT22;744;51.436;7.356;2023-03-01T09:30:01;4.70;40.90
1506;DHT22;744;51.436;7.356;2023-03-01T09:32:30;4.90;40.80
1506;DHT22;744;51.436;7.356;2023-03-01T09:34:57;5.20;40.80
1506;DHT22;744;51.436;7.356;2023-03-01T09:37:34;5.00;40.50
1506;DHT22;744;51.436;7.356;2023-03-01T09:40:04;5.10;40.40
1506;DHT22;744;51.436;7.356;2023-03-01T09:42:34;5.10;40.30
1506;DHT22;744;51.436;7.356;2023-03-01T09:45:10;5.10;40.00
1506;DHT22;744;51.436;7.356;2023-03-01T09:47:37;5.30;40.20
1506;DHT22;744;51.436;7.356;2023-03-01T09:50:16;5.40;40.20
1506;DHT22;744;51.436;7.356;2023-03-01T10:01:40;5.60;39.40
1506;DHT22;744;51.436;7.356;2023-03-01T10:06:57;5.70;39.20
1506;DHT22;744;51.436;7.356;2023-03-01T10:09:24;5.70;39.00
1506;DHT22;744;51.436;7.356;2023-03-01T10:11:55;5.70;39.00
1506;DHT22;744;51.436;7.356;2023-03-01T10:22:48;6.10;38.10
1506;DHT22;744;51.436;7.356;2023-03-01T10:28:29;6.00;37.70
1506;DHT22;744;51.436;7.356;2023-03-01T10:30:58;6.20;37.90
1506;DHT22;744;51.436;7.356;2023-03-01T10:33:35;5.80;37.60
1506;DHT22;744;51.436;7.356;2023-03-01T10:36:03;6.10;37.60
1506;DHT22;744;51.436;7.356;2023-03-01T10:38:47;6.20;37.70
1506;DHT22;744;51.436;7.356;2023-03-01T10:41:14;6.20;37.50
1506;DHT22;744;51.436;7.356;2023-03-01T10:43:49;6.20;37.40
1506;DHT22;744;51.436;7.356;2023-03-01T10:46:36;6.30;37.20
1506;DHT22;744;51.436;7.356;2023-03-01T10:49:23;6.40;37.20
1506;DHT22;744;51.436;7.356;2023-03-01T10:51:53;6.40;37.10
1506;DHT22;744;51.436;7.356;2023-03-01T10:54:30;6.40;37.00
1506;DHT22;744;51.436;7.356;2023-03-01T10:57:01;6.30;36.80
1506;DHT22;744;51.436;7.356;2023-03-01T10:59:32;6.40;36.90
1506;DHT22;744;51.436;7.356;2023-03-01T11:02:28;6.50;36.90
1506;DHT22;744;51.436;7.356;2023-03-01T11:05:01;6.50;36.60
1506;DHT22;744;51.436;7.356;2023-03-01T11:07:28;6.60;36.60
1506;DHT22;744;51.436;7.356;2023-03-01T11:09:55;6.60;36.80
1506;DHT22;744;51.436;7.356;2023-03-01T11:12:22;6.70;36.80
1506;DHT22;744;51.436;7.356;2023-03-01T11:14:53;7.00;36.80
1506;DHT22;744;51.436;7.356;2023-03-01T11:17:31;6.90;36.70
1506;DHT22;744;51.436;7.356;2023-03-01T11:23:04;7.10;36.50
1506;DHT22;744;51.436;7.356;2023-03-01T11:25:37;6.90;36.00
1506;DHT22;744;51.436;7.356;2023-03-01T11:28:06;7.00;36.00
1506;DHT22;744;51.436;7.356;2023-03-01T11:31:06;7.00;36.10
1506;DHT22;744;51.436;7.356;2023-03-01T11:33:55;7.20;36.20
1506;DHT22;744;51.436;7.356;2023-03-01T11:36:41;7.20;36.20
1506;DHT22;744;51.436;7.356;2023-03-01T11:39:28;7.40;36.20
1506;DHT22;744;51.436;7.356;2023-03-01T11:42:09;7.30;35.80
1506;DHT22;744;51.436;7.356;2023-03-01T11:44:47;7.20;35.70
1506;DHT22;744;51.436;7.356;2023-03-01T11:50:11;7.50;36.10
1506;DHT22;744;51.436;7.356;2023-03-01T12:10:03;7.30;35.50
1506;DHT22;744;51.436;7.356;2023-03-01T12:12:48;7.50;35.50
1506;DHT22;744;51.436;7.356;2023-03-01T12:26:38;7.50;34.90
1506;DHT22;744;51.436;7.356;2023-03-01T12:29:25;7.60;34.90
1506;DHT22;744;51.436;7.356;2023-03-01T12:40:40;7.70;35.00
1506;DHT22;744;51.436;7.356;2023-03-01T12:46:10;7.70;34.60
1506;DHT22;744;51.436;7.356;2023-03-01T12:49:04;7.70;34.70
1506;DHT22;744;51.436;7.356;2023-03-01T12:51:35;7.90;34.60
1506;DHT22;744;51.436;7.356;2023-03-01T12:54:21;7.90;34.60
1506;DHT22;744;51.436;7.356;2023-03-01T12:56:49;7.70;34.50
1506;DHT22;744;51.436;7.356;2023-03-01T13:02:21;7.80;34.50
1506;DHT22;744;51.436;7.356;2023-03-01T13:05:19;7.90;34.50
1506;DHT22;744;51.436;7.356;2023-03-01T13:08:19;8.20;34.20
1506;DHT22;744;51.436;7.356;2023-03-01T13:10:50;8.00;34.00
1506;DHT22;744;51.436;7.356;2023-03-01T13:13:21;8.20;34.30
1506;DHT22;744;51.436;7.356;2023-03-01T13:15:48;8.00;33.90
1506;DHT22;744;51.436;7.356;2023-03-01T13:20:51;7.80;33.70
1506;DHT22;744;51.436;7.356;2023-03-01T13:26:01;8.10;33.50
1506;DHT22;744;51.436;7.356;2023-03-01T13:31:06;8.10;33.30
1506;DHT22;744;51.436;7.356;2023-03-01T13:33:43;8.20;33.20
1506;DHT22;744;51.436;7.356;2023-03-01T13:39:00;8.30;32.90
1506;DHT22;744;51.436;7.356;2023-03-01T13:44:33;8.30;32.50
1506;DHT22;744;51.436;7.356;2023-03-01T13:49:47;8.30;32.50
1506;DHT22;744;51.436;7.356;2023-03-01T13:54:59;8.40;32.40
1506;DHT22;744;51.436;7.356;2023-03-01T13:57:33;8.30;32.20
1506;DHT22;744;51.436;7.356;2023-03-01T14:00:00;8.30;32.00
1506;DHT22;744;51.436;7.356;2023-03-01T14:02:27;8.40;32.00
1506;DHT22;744;51.436;7.356;2023-03-01T14:05:00;8.40;31.80
1506;DHT22;744;51.436;7.356;2023-03-01T14:07:28;8.50;31.60
1506;DHT22;744;51.436;7.356;2023-03-01T14:10:03;8.50;31.70
1506;DHT22;744;51.436;7.356;2023-03-01T14:20:42;8.70;31.20
1506;DHT22;744;51.436;7.356;2023-03-01T14:23:13;8.50;31.00
1506;DHT22;744;51.436;7.356;2023-03-01T14:25:47;8.50;31.20
1506;DHT22;744;51.436;7.356;2023-03-01T14:28:24;8.40;30.80
1506;DHT22;744;51.436;7.356;2023-03-01T14:30:57;8.50;31.00
1506;DHT22;744;51.436;7.356;2023-03-01T14:33:26;8.50;30.20
1506;DHT22;744;51.436;7.356;2023-03-01T14:36:03;8.70;30.30
1506;DHT22;744;51.436;7.356;2023-03-01T14:41:14;8.60;29.90
1506;DHT22;744;51.436;7.356;2023-03-01T14:43:53;8.90;30.20
1506;DHT22;744;51.436;7.356;2023-03-01T14:46:30;8.90;29.90
1506;DHT22;744;51.436;7.356;2023-03-01T14:49:06;8.70;29.50
1506;DHT22;744;51.436;7.356;2023-03-01T14:51:41;8.70;29.90
1506;DHT22;744;51.436;7.356;2023-03-01T14:54:44;8.90;30.00
1506;DHT22;744;51.436;7.356;2023-03-01T14:57:16;8.80;30.20
1506;DHT22;744;51.436;7.356;2023-03-01T14:59:44;8.90;29.60
1506;DHT22;744;51.436;7.356;2023-03-01T15:02:19;8.80;30.00
1506;DHT22;744;51.436;7.356;2023-03-01T15:04:54;8.70;29.60
1506;DHT22;744;51.436;7.356;2023-03-01T15:07:27;8.60;30.00
1506;DHT22;744;51.436;7.356;2023-03-01T15:09:56;8.60;30.00
1506;DHT22;744;51.436;7.356;2023-03-01T15:14:56;8.80;30.10
1506;DHT22;744;51.436;7.356;2023-03-01T15:17:35;8.80;30.20
1506;DHT22;744;51.436;7.356;2023-03-01T15:20:13;8.70;30.20
1506;DHT22;744;51.436;7.356;2023-03-01T15:22:46;8.70;29.90
1506;DHT22;744;51.436;7.356;2023-03-01T15:25:18;8.80;29.60
1506;DHT22;744;51.436;7.356;2023-03-01T15:27:46;8.70;30.00
1506;DHT22;744;51.436;7.356;2023-03-01T15:30:18;8.60;30.00
1506;DHT22;744;51.436;7.356;2023-03-01T15:32:46;8.80;30.00
1506;DHT22;744;51.436;7.356;2023-03-01T15:35:53;8.80;30.00
1506;DHT22;744;51.436;7.356;2023-03-01T15:38:53;8.80;30.10
1506;DHT22;744;51.436;7.356;2023-03-01T15:41:26;8.90;29.80
1506;DHT22;744;51.436;7.356;2023-03-01T15:43:54;8.80;29.50
1506;DHT22;744;51.436;7.356;2023-03-01T15:46:33;8.50;29.80
1506;DHT22;744;51.436;7.356;2023-03-01T15:49:03;8.80;29.90
1506;DHT22;744;51.436;7.356;2023-03-01T15:51:37;8.80;29.90
1506;DHT22;744;51.436;7.356;2023-03-01T15:54:18;8.70;29.80
1506;DHT22;744;51.436;7.356;2023-03-01T15:56:45;8.60;29.90
1506;DHT22;744;51.436;7.356;2023-03-01T15:59:13;8.70;30.00
1506;DHT22;744;51.436;7.356;2023-03-01T16:01:41;8.60;30.00
1506;DHT22;744;51.436;7.356;2023-03-01T16:04:16;8.60;29.50
1506;DHT22;744;51.436;7.356;2023-03-01T16:06:51;8.60;30.00
1506;DHT22;744;51.436;7.356;2023-03-01T16:09:23;8.90;30.10
1506;DHT22;744;51.436;7.356;2023-03-01T16:11:50;8.60;29.90
1506;DHT22;744;51.436;7.356;2023-03-01T16:14:18;8.40;29.90
1506;DHT22;744;51.436;7.356;2023-03-01T16:16:45;8.40;30.00
1506;DHT22;744;51.436;7.356;2023-03-01T16:19:12;8.60;30.10
1506;DHT22;744;51.436;7.356;2023-03-01T16:21:39;8.50;30.10
1506;DHT22;744;51.436;7.356;2023-03-01T16:24:06;8.40;30.10
1506;DHT22;744;51.436;7.356;2023-03-01T16:26:33;8.50;30.20
1506;DHT22;744;51.436;7.356;2023-03-01T16:28:59;8.50;30.20
1506;DHT22;744;51.436;7.356;2023-03-01T16:31:26;8.30;30.00
1506;DHT22;744;51.436;7.356;2023-03-01T16:33:55;8.40;30.00
1506;DHT22;744;51.436;7.356;2023-03-01T16:36:23;8.40;30.00
1506;DHT22;744;51.436;7.356;2023-03-01T16:38:52;8.40;30.20
1506;DHT22;744;51.436;7.356;2023-03-01T16:41:21;8.40;30.30
1506;DHT22;744;51.436;7.356;2023-03-01T16:43:49;8.40;30.10
1506;DHT22;744;51.436;7.356;2023-03-01T16:46:19;8.50;30.20
1506;DHT22;744;51.436;7.356;2023-03-01T16:48:46;8.30;30.10
1506;DHT22;744;51.436;7.356;2023-03-01T16:51:13;8.20;30.00
1506;DHT22;744;51.436;7.356;2023-03-01T16:53:40;8.60;30.40
1506;DHT22;744;51.436;7.356;2023-03-01T16:56:10;8.40;30.00
1506;DHT22;744;51.436;7.356;2023-03-01T16:58:37;8.40;30.00
1506;DHT22;744;51.436;7.356;2023-03-01T17:01:09;8.40;30.00
1506;DHT22;744;51.436;7.356;2023-03-01T17:03:38;8.40;30.00
1506;DHT22;744;51.436;7.356;2023-03-01T17:06:14;8.70;30.20
1506;DHT22;744;51.436;7.356;2023-03-01T17:08:41;8.30;29.90
1506;DHT22;744;51.436;7.356;2023-03-01T17:11:11;8.40;30.00
1506;DHT22;744;51.436;7.356;2023-03-01T17:13:39;8.60;30.10
1506;DHT22;744;51.436;7.356;2023-03-01T17:16:09;8.50;30.10
1506;DHT22;744;51.436;7.356;2023-03-01T17:18:37;8.40;30.00
1506;DHT22;744;51.436;7.356;2023-03-01T17:21:06;8.40;30.20
1506;DHT22;744;51.436;7.356;2023-03-01T17:23:34;8.40;30.20
1506;DHT22;744;51.436;7.356;2023-03-01T17:26:01;8.40;30.10
1506;DHT22;744;51.436;7.356;2023-03-01T17:28:29;8.60;30.10
1506;DHT22;744;51.436;7.356;2023-03-01T17:31:02;8.70;30.10
1506;DHT22;744;51.436;7.356;2023-03-01T17:33:30;8.50;29.90
1506;DHT22;744;51.436;7.356;2023-03-01T17:35:57;8.50;30.00
1506;DHT22;744;51.436;7.356;2023-03-01T17:38:25;8.50;30.00
1506;DHT22;744;51.436;7.356;2023-03-01T17:40:52;8.30;29.80
1506;DHT22;744;51.436;7.356;2023-03-01T17:43:19;8.20;29.90
1506;DHT22;744;51.436;7.356;2023-03-01T17:45:46;8.20;29.80
1506;DHT22;744;51.436;7.356;2023-03-01T17:48:17;8.30;30.00
1506;DHT22;744;51.436;7.356;2023-03-01T17:50:45;8.10;29.90
1506;DHT22;744;51.436;7.356;2023-03-01T17:53:12;8.10;29.90
1506;DHT22;744;51.436;7.356;2023-03-01T17:55:41;8.00;29.80
1506;DHT22;744;51.436;7.356;2023-03-01T17:58:12;8.00;29.80
1506;DHT22;744;51.436;7.356;2023-03-01T18:00:39;8.10;29.80
1506;DHT22;744;51.436;7.356;2023-03-01T18:03:06;7.80;29.80
1506;DHT22;744;51.436;7.356;2023-03-01T18:05:34;8.00;30.00
1506;DHT22;744;51.436;7.356;2023-03-01T18:08:02;8.00;29.90
1506;DHT22;744;51.436;7.356;2023-03-01T18:10:31;8.10;30.00
1506;DHT22;744;51.436;7.356;2023-03-01T18:12:57;7.90;29.90
1506;DHT22;744;51.436;7.356;2023-03-01T18:15:25;7.80;29.90
1506;DHT22;744;51.436;7.356;2023-03-01T18:17:52;8.00;29.90
1506;DHT22;744;51.436;7.356;2023-03-01T18:20:20;7.90;29.90
1506;DHT22;744;51.436;7.356;2023-03-01T18:22:47;7.80;29.90
1506;DHT22;744;51.436;7.356;2023-03-01T18:25:14;7.70;29.80
1506;DHT22;744;51.436;7.356;2023-03-01T18:27:41;7.70;29.90
1506;DHT22;744;51.436;7.356;2023-03-01T18:30:08;7.70;29.90
1506;DHT22;744;51.436;7.356;2023-03-01T18:32:35;7.70;29.90
1506;DHT22;744;51.436;7.356;2023-03-01T18:35:03;7.70;30.00
1506;DHT22;744;51.436;7.356;2023-03-01T18:37:30;7.60;30.00
1506;DHT22;744;51.436;7.356;2023-03-01T18:39:56;7.70;30.00
1506;DHT22;744;51.436;7.356;2023-03-01T18:42:23;7.50;29.90
1506;DHT22;744;51.436;7.356;2023-03-01T18:44:50;7.60;30.00
1506;DHT22;744;51.436;7.356;2023-03-01T18:47:18;7.60;30.00
1506;DHT22;744;51.436;7.356;2023-03-01T18:49:45;7.60;30.10
1506;DHT22;744;51.436;7.356;2023-03-01T18:52:12;7.50;30.20
1506;DHT22;744;51.436;7.356;2023-03-01T18:54:39;7.50;30.20